Time;durP1;ratioP1;P1;durP2;ratioP2;P2;SDS_P1;SDS_P2;PMS_P1;PMS_P2;Temp;Humidity;BMP_temperature;BMP_pressure;BME280_temperature;BME280_humidity;BME280_pressure;Samples;Min_cycle;Max_cycle;Signal;HPM_P1;HPM_P2
2022/04/21 00:00:07;;;;;;;16.23;11.75;;;;;;;4.12;77.71;99493.28;5102673;28;20405;-74
2022/04/21 00:02:33;;;;;;;17.42;13.48;;;;;;;4.26;77.55;99496.19;5096866;28;20076;-74
2022/04/21 00:04:59;;;;;;;20.15;14.20;;;;;;;4.26;77.47;99499.78;5096517;28;20482;-74
2022/04/21 00:07:25;;;;;;;22.00;14.57;;;;;;;4.22;78.07;99493.16;5098994;28;20540;-74
2022/04/21 00:09:51;;;;;;;19.45;14.63;;;;;;;4.33;77.99;99494.72;5114706;28;20035;-74
2022/04/21 00:12:16;;;;;;;20.58;14.30;;;;;;;4.42;76.84;99496.84;5113978;28;20028;-74
2022/04/21 00:14:42;;;;;;;23.75;14.00;;;;;;;4.39;76.71;99495.50;5111226;28;20059;-74
2022/04/21 00:17:08;;;;;;;23.27;15.70;;;;;;;4.42;76.11;99497.69;5090989;28;20033;-75
2022/04/21 00:19:38;;;;;;;19.98;14.20;;;;;;;4.14;77.42;99491.06;5094694;28;20032;-74
2022/04/21 00:24:48;;;;;;;27.45;18.33;;;;;;;3.71;78.25;99489.75;5111168;28;20047;-73
2022/04/21 00:27:14;;;;;;;27.65;16.52;;;;;;;3.62;78.58;99497.00;5113432;28;20115;-74
2022/04/21 00:29:40;;;;;;;20.02;13.73;;;;;;;3.56;78.56;99510.06;5095168;28;20027;-75
2022/04/21 00:32:06;;;;;;;17.80;11.55;;;;;;;3.63;78.64;99505.03;5100142;28;20339;-75
2022/04/21 00:34:35;;;;;;;21.38;10.43;;;;;;;3.58;79.12;99507.00;5094823;28;20103;-74
2022/04/21 00:37:00;;;;;;;16.17;10.20;;;;;;;3.58;79.36;99499.53;5113821;28;20397;-75
2022/04/21 00:39:27;;;;;;;12.85;10.30;;;;;;;3.62;78.91;99511.66;5114303;28;20019;-74
2022/04/21 00:41:56;;;;;;;13.25;9.70;;;;;;;3.64;79.27;99512.19;5091730;28;20150;-75
2022/04/21 00:44:22;;;;;;;18.45;11.57;;;;;;;3.61;78.94;99514.72;5101936;28;20031;-75
2022/04/21 00:46:48;;;;;;;16.95;11.45;;;;;;;3.50;79.23;99505.66;5084271;28;20020;-74
2022/04/21 00:49:14;;;;;;;15.05;10.98;;;;;;;3.49;79.21;99509.56;5112225;28;20096;-74
2022/04/21 00:51:41;;;;;;;14.80;10.23;;;;;;;3.45;79.15;99508.47;5098144;28;20031;-74
2022/04/21 00:54:06;;;;;;;20.33;11.65;;;;;;;3.36;79.41;99513.78;5114129;28;20024;-75
2022/04/21 00:56:32;;;;;;;19.77;11.43;;;;;;;3.23;79.49;99518.81;5104395;28;20028;-74
2022/04/21 00:58:58;;;;;;;17.75;11.10;;;;;;;3.39;79.19;99521.50;5096053;28;20554;-75
2022/04/21 01:04:09;;;;;;;14.43;10.52;;;;;;;3.41;79.06;99529.50;5113830;28;20030;-75
2022/04/21 01:06:35;;;;;;;16.15;10.50;;;;;;;3.39;79.00;99538.09;5095192;28;20559;-75
2022/04/21 01:09:00;;;;;;;16.38;10.55;;;;;;;3.53;79.04;99543.81;5113090;28;20044;-75
2022/04/21 01:11:26;;;;;;;16.35;10.75;;;;;;;3.54;78.49;99550.19;5107631;28;20106;-75
2022/04/21 01:13:52;;;;;;;14.20;10.50;;;;;;;3.46;78.78;99549.66;5113569;28;20457;-74
2022/04/21 01:16:17;;;;;;;16.73;11.23;;;;;;;3.56;78.86;99556.25;5095057;28;20023;-74
2022/04/21 01:18:43;;;;;;;21.75;12.35;;;;;;;3.61;78.73;99551.50;5095259;28;20065;-75
2022/04/21 01:21:08;;;;;;;18.60;11.75;;;;;;;3.45;78.51;99553.53;5112712;28;20031;-75
2022/04/21 01:23:35;;;;;;;18.25;11.60;;;;;;;3.48;78.55;99544.66;5094426;28;20409;-75
2022/04/21 01:26:02;;;;;;;17.13;11.50;;;;;;;3.39;78.42;99540.88;5103883;28;20100;-75
2022/04/21 01:28:30;;;;;;;16.83;10.73;;;;;;;3.50;78.36;99541.63;5113283;28;20023;-75
2022/04/21 01:30:56;;;;;;;13.70;9.48;;;;;;;3.56;78.11;99526.66;5095020;28;20023;-74
2022/04/21 01:33:22;;;;;;;17.40;10.77;;;;;;;3.53;78.13;99529.16;5078269;28;20481;-75
2022/04/21 01:35:48;;;;;;;15.07;9.60;;;;;;;3.64;77.66;99520.50;5099590;28;20109;-75
2022/04/21 01:41:10;;;;;;;15.40;10.68;;;;;;;3.82;76.89;99523.72;5113286;28;20126;-73
2022/04/21 01:43:37;;;;;;;14.43;9.68;;;;;;;3.90;75.92;99523.06;5095816;28;20020;-75
2022/04/21 01:46:03;;;;;;;16.35;9.40;;;;;;;3.93;75.37;99516.97;5091265;27;20045;-75
2022/04/21 01:48:29;;;;;;;13.50;10.88;;;;;;;3.98;76.09;99513.34;5112424;28;20031;-74
2022/04/21 01:50:55;;;;;;;18.67;10.88;;;;;;;4.01;75.58;99512.75;5112914;28;20030;-75
2022/04/21 01:53:20;;;;;;;16.73;10.68;;;;;;;4.04;76.03;99498.34;5094487;28;20019;-75
2022/04/21 01:55:46;;;;;;;16.65;10.60;;;;;;;3.98;76.20;99498.66;5078696;28;20489;-74
2022/04/21 01:58:12;;;;;;;14.95;8.98;;;;;;;3.93;75.54;99510.59;5097677;28;20048;-74
2022/04/21 02:00:38;;;;;;;12.38;10.07;;;;;;;3.88;76.01;99499.59;5088188;28;20062;-75
2022/04/21 02:03:04;;;;;;;19.20;13.32;;;;;;;3.77;76.59;99496.91;5105872;28;20020;-74
2022/04/21 02:05:30;;;;;;;36.70;20.63;;;;;;;3.89;76.25;99495.72;5112449;28;20026;-74
2022/04/21 02:07:55;;;;;;;42.88;23.05;;;;;;;3.82;76.34;99495.19;5112512;28;20028;-75
2022/04/21 02:10:24;;;;;;;38.53;21.00;;;;;;;4.00;76.14;99494.50;5093536;28;20076;-75
2022/04/21 02:12:50;;;;;;;34.88;19.70;;;;;;;3.95;75.94;99499.25;5112505;28;20094;-74
2022/04/21 02:15:19;;;;;;;35.50;20.20;;;;;;;4.02;76.05;99497.81;5112141;28;20035;-75
2022/04/21 02:17:46;;;;;;;29.63;18.35;;;;;;;3.99;75.02;99498.38;5112303;28;20472;-73
2022/04/21 02:20:16;;;;;;;24.20;15.48;;;;;;;4.07;75.17;99494.16;5112295;28;20032;-75
2022/04/21 02:22:42;;;;;;;23.70;14.73;;;;;;;4.05;75.14;99493.63;5093770;28;20452;-74
2022/04/21 02:25:09;;;;;;;16.88;12.02;;;;;;;3.89;75.29;99488.22;5112135;28;20024;-74
2022/04/21 02:27:37;;;;;;;15.77;10.25;;;;;;;3.78;76.25;99484.72;5092336;28;20024;-74
2022/04/21 02:30:04;;;;;;;15.57;10.23;;;;;;;3.94;76.27;99490.13;5103352;28;20409;-74
2022/04/21 02:32:29;;;;;;;11.45;8.77;;;;;;;4.06;76.11;99481.44;5112179;28;20019;-74
2022/04/21 02:34:55;;;;;;;11.73;8.98;;;;;;;3.90;76.11;99481.56;5111363;28;20504;-74
2022/04/21 02:37:22;;;;;;;14.60;10.38;;;;;;;3.90;76.06;99500.13;5109781;28;20088;-74
2022/04/21 02:39:48;;;;;;;18.02;13.27;;;;;;;3.92;75.63;99486.81;5090146;28;20077;-74
2022/04/21 02:42:14;;;;;;;17.67;13.95;;;;;;;3.98;76.39;99493.97;5093065;28;20032;-73
2022/04/21 02:44:40;;;;;;;17.77;14.43;;;;;;;3.95;76.02;99488.19;5093113;28;20019;-73
2022/04/21 02:47:07;;;;;;;17.02;12.25;;;;;;;3.97;75.53;99484.00;5111243;28;20165;-75
2022/04/21 02:49:36;;;;;;;15.88;11.75;;;;;;;3.89;75.86;99496.50;5111801;28;20462;-74
2022/04/21 02:52:11;;;;;;;23.05;18.08;;;;;;;3.87;75.53;99492.41;5088228;28;20028;-75
2022/04/21 02:57:21;;;;;;;18.45;14.38;;;;;;;3.74;76.61;99478.13;5095849;28;20034;-75
2022/04/21 02:59:58;;;;;;;16.73;11.95;;;;;;;3.83;76.16;99483.84;5111492;28;20110;-74
2022/04/21 03:02:24;;;;;;;11.32;9.80;;;;;;;3.64;76.39;99489.25;5111859;28;20098;-75
2022/04/21 03:04:51;;;;;;;15.63;10.05;;;;;;;3.81;77.13;99485.25;5111721;28;20110;-74
2022/04/21 03:07:23;;;;;;;13.50;9.70;;;;;;;3.82;77.00;99492.44;5095835;28;20023;-74
2022/04/21 03:09:55;;;;;;;11.98;9.52;;;;;;;3.92;75.98;99489.59;5103397;28;20496;-75
2022/04/21 03:12:26;;;;;;;11.80;9.38;;;;;;;3.90;75.40;99494.59;5116177;28;20485;-75
2022/04/21 03:14:52;;;;;;;12.30;9.05;;;;;;;3.89;75.82;99498.47;5115129;28;20401;-74
2022/04/21 03:17:18;;;;;;;13.63;10.25;;;;;;;3.97;76.27;99497.81;5091159;28;20024;-75
2022/04/21 03:19:44;;;;;;;14.20;11.50;;;;;;;3.87;75.55;99495.97;5115497;28;20054;-74
2022/04/21 03:24:58;;;;;;;12.73;9.57;;;;;;;3.87;75.41;99501.50;5102410;28;20456;-73
2022/04/21 03:27:23;;;;;;;15.68;9.77;;;;;;;3.91;75.34;99504.53;5090361;28;20059;-75
2022/04/21 03:29:50;;;;;;;18.35;11.90;;;;;;;3.70;73.60;99501.13;5083981;28;20504;-74
2022/04/21 03:32:15;;;;;;;22.70;14.75;;;;;;;3.70;74.00;99507.47;5115462;28;20496;-75
2022/04/21 03:34:42;;;;;;;36.35;23.45;;;;;;;3.66;74.49;99503.63;5095067;28;20024;-75
2022/04/21 03:37:10;;;;;;;18.55;12.10;;;;;;;3.60;74.59;99499.22;5115558;28;20450;-75
2022/04/21 03:39:38;;;;;;;19.70;11.88;;;;;;;3.52;75.72;99514.50;5096922;28;20019;-75
2022/04/21 03:42:08;;;;;;;20.88;12.57;;;;;;;3.34;76.49;99508.53;5114900;28;20478;-74
2022/04/21 03:44:39;;;;;;;51.00;28.70;;;;;;;3.54;76.32;99505.94;5112863;28;20088;-74
2022/04/21 03:47:06;;;;;;;62.72;36.33;;;;;;;3.51;76.55;99513.69;5113644;28;20031;-75
2022/04/21 03:49:31;;;;;;;61.67;36.97;;;;;;;3.20;76.89;99507.53;5113143;28;20023;-74
2022/04/21 03:51:57;;;;;;;50.03;28.23;;;;;;;3.03;77.98;99514.22;5094695;28;20078;-74
2022/04/21 03:54:24;;;;;;;40.65;24.75;;;;;;;3.48;77.62;99513.44;5107346;28;20030;-74
2022/04/21 03:56:50;;;;;;;31.75;21.38;;;;;;;3.37;77.70;99515.41;5095448;28;20039;-74
2022/04/21 03:59:20;;;;;;;27.35;18.90;;;;;;;3.51;77.13;99512.84;5096101;28;20100;-75
2022/04/21 04:01:46;;;;;;;27.42;16.77;;;;;;;3.58;77.27;99515.28;5113652;28;20020;-74
2022/04/21 04:04:12;;;;;;;26.42;18.38;;;;;;;3.76;76.84;99519.31;5107573;28;20054;-75
2022/04/21 04:12:08;;;;;;;37.33;24.50;;;;;;;3.79;76.03;99530.63;5100000;28;20120;-75
2022/04/21 04:14:34;;;;;;;57.75;36.47;;;;;;;3.62;75.72;99519.13;5095857;28;20039;-74
2022/04/21 04:17:00;;;;;;;109.93;61.97;;;;;;;3.51;76.64;99512.84;5095498;28;20406;-75
2022/04/21 04:19:26;;;;;;;122.28;62.42;;;;;;;3.38;76.81;99533.69;5092735;28;20036;-74
2022/04/21 04:21:51;;;;;;;79.20;42.10;;;;;;;3.33;77.53;99519.88;5112778;28;20036;-75
2022/04/21 04:24:17;;;;;;;55.20;32.60;;;;;;;3.28;77.15;99523.50;5096065;28;20032;-75
2022/04/21 04:26:42;;;;;;;47.70;26.00;;;;;;;3.34;76.99;99518.75;5113488;28;20043;-74
2022/04/21 04:29:09;;;;;;;78.95;40.70;;;;;;;3.25;77.09;99514.94;5111962;28;20023;-75
2022/04/21 04:31:36;;;;;;;58.67;32.15;;;;;;;3.34;76.78;99516.84;5078352;28;20482;-75
2022/04/21 04:34:03;;;;;;;65.18;32.05;;;;;;;3.39;77.13;99526.19;5112069;28;20016;-74
2022/04/21 04:36:28;;;;;;;66.97;37.60;;;;;;;3.48;76.65;99513.44;5090430;28;20015;-75
2022/04/21 04:38:54;;;;;;;64.05;37.38;;;;;;;3.53;77.42;99518.09;5091216;28;20027;-75
2022/04/21 04:44:04;;;;;;;46.97;28.00;;;;;;;3.58;77.37;99523.59;5111221;28;20060;-73
2022/04/21 04:46:35;;;;;;;48.58;25.63;;;;;;;3.91;76.96;99526.69;5113909;28;20023;-75
2022/04/21 04:49:06;;;;;;;38.20;22.73;;;;;;;4.12;76.32;99513.47;5108515;28;20023;-74
2022/04/21 04:51:32;;;;;;;26.67;18.27;;;;;;;4.27;77.09;99518.06;5094155;28;20458;-69
2022/04/21 04:53:58;;;;;;;36.25;19.38;;;;;;;4.15;77.67;99518.44;5097465;28;20454;-70
2022/04/21 04:56:24;;;;;;;33.40;19.45;;;;;;;4.33;76.66;99505.78;5090687;28;20028;-74
2022/04/21 04:58:51;;;;;;;34.25;18.42;;;;;;;4.25;76.08;99519.47;5086795;28;20110;-72
2022/04/21 05:01:26;;;;;;;39.58;21.33;;;;;;;4.23;76.53;99505.91;5092019;28;20118;-73
2022/04/21 05:04:05;;;;;;;40.97;20.23;;;;;;;4.06;76.66;99517.44;5111207;28;20031;-71
2022/04/21 05:06:38;;;;;;;43.63;20.00;;;;;;;3.73;76.93;99501.34;5093216;28;20024;-71
2022/04/21 05:09:05;;;;;;;38.15;20.75;;;;;;;3.75;77.74;99495.53;5101993;28;20460;-73
2022/04/21 05:11:31;;;;;;;41.58;20.80;;;;;;;3.64;78.26;99500.31;5112395;28;20036;-72
2022/04/21 05:13:57;;;;;;;55.38;28.85;;;;;;;3.74;78.97;99503.03;5092836;28;20448;-74
2022/04/21 05:16:22;;;;;;;45.85;24.90;;;;;;;3.89;79.02;99509.53;5089084;28;20060;-75
2022/04/21 05:18:49;;;;;;;43.22;23.13;;;;;;;3.89;78.54;99506.78;5093446;28;20464;-71
2022/04/21 05:21:16;;;;;;;28.75;18.60;;;;;;;4.08;78.60;99516.00;5094975;28;20401;-70
2022/04/21 05:23:46;;;;;;;31.95;17.98;;;;;;;4.10;79.20;99512.94;5110573;28;20020;-73
2022/04/21 05:26:12;;;;;;;;;;;;;;;4.26;77.95;99527.47;5106662;28;20023;-71
2022/04/21 05:28:38;;;;;;;30.27;17.20;;;;;;;4.48;79.39;99523.41;5092947;28;20616;-71
2022/04/21 05:31:03;;;;;;;31.25;18.58;;;;;;;4.57;77.64;99526.34;5094949;28;20027;-73
2022/04/21 05:33:30;;;;;;;30.52;18.98;;;;;;;4.57;78.03;99532.69;5111342;28;20116;-81
2022/04/21 05:35:58;;;;;;;32.03;19.60;;;;;;;4.60;77.91;99537.69;5110154;28;20122;-72
2022/04/21 05:38:24;;;;;;;38.17;21.02;;;;;;;4.87;77.85;99541.81;5111879;28;20085;-73
2022/04/21 05:40:52;;;;;;;35.22;22.30;;;;;;;4.99;77.77;99544.16;5107720;28;20504;-71
2022/04/21 05:43:19;;;;;;;34.55;22.17;;;;;;;5.01;77.64;99546.63;5084444;28;20481;-70
2022/04/21 05:45:46;;;;;;;33.47;21.73;;;;;;;5.40;78.15;99556.66;5106073;28;20020;-70
2022/04/21 05:48:15;;;;;;;28.88;20.17;;;;;;;5.09;76.15;99548.75;5103325;28;20036;-70
2022/04/21 05:50:45;;;;;;;39.58;23.02;;;;;;;5.04;78.05;99546.03;5096041;28;20027;-71
2022/04/21 05:53:19;;;;;;;37.67;22.52;;;;;;;5.25;77.51;99543.84;5104644;28;20461;-73
2022/04/21 05:55:45;;;;;;;37.85;22.65;;;;;;;5.48;77.17;99539.38;5088461;28;20024;-74
2022/04/21 05:58:11;;;;;;;38.20;23.65;;;;;;;5.53;76.22;99530.16;5107391;28;20053;-76
2022/04/21 06:00:36;;;;;;;35.72;23.05;;;;;;;5.63;77.42;99520.84;5087636;28;20395;-76
2022/04/21 06:03:02;;;;;;;35.97;24.55;;;;;;;5.73;75.42;99512.34;5097339;28;20051;-75
2022/04/21 06:05:28;;;;;;;35.22;22.80;;;;;;;5.96;74.78;99520.88;5106543;28;20068;-74
2022/04/21 06:07:53;;;;;;;31.25;20.73;;;;;;;6.21;73.98;99532.72;5105253;28;20096;-73
2022/04/21 06:10:18;;;;;;;33.78;21.20;;;;;;;6.35;74.80;99521.66;5086256;28;20032;-69
2022/04/21 06:12:44;;;;;;;33.45;19.73;;;;;;;6.26;74.24;99524.28;5085843;28;20433;-72
2022/04/21 06:15:09;;;;;;;26.80;17.83;;;;;;;6.26;73.98;99509.59;5084207;28;20026;-74
2022/04/21 06:17:35;;;;;;;21.42;14.57;;;;;;;6.23;73.11;99508.22;5089446;28;20028;-75
2022/04/21 06:20:00;;;;;;;19.65;14.98;;;;;;;6.26;73.15;99506.81;5086322;28;20394;-72
2022/04/21 06:22:26;;;;;;;19.67;13.35;;;;;;;6.34;73.10;99508.06;5102330;28;20033;-72
2022/04/21 06:24:51;;;;;;;19.23;14.90;;;;;;;6.50;73.77;99509.41;5106619;28;20123;-72
2022/04/21 06:27:17;;;;;;;24.80;16.15;;;;;;;6.42;72.97;99512.91;5108971;28;20028;-72
2022/04/21 06:29:44;;;;;;;21.00;14.93;;;;;;;6.28;73.53;99523.97;5107304;28;20062;-72
2022/04/21 06:32:10;;;;;;;27.33;16.95;;;;;;;6.41;72.88;99522.38;5091104;28;20024;-72
2022/04/21 06:34:35;;;;;;;23.33;15.32;;;;;;;6.45;74.07;99515.88;5109645;28;20016;-71
2022/04/21 06:37:01;;;;;;;19.67;14.00;;;;;;;6.59;74.84;99510.34;5086913;28;20048;-75
2022/04/21 06:39:26;;;;;;;26.33;15.38;;;;;;;6.64;73.38;99512.22;5103607;28;20024;-71
2022/04/21 06:41:52;;;;;;;22.90;14.38;;;;;;;6.77;74.03;99510.59;5105005;28;20019;-70
2022/04/21 06:49:49;;;;;;;20.17;15.10;;;;;;;6.70;73.66;99513.78;5105189;28;20042;-72
2022/04/21 06:52:14;;;;;;;25.45;16.38;;;;;;;6.85;73.37;99515.41;5108291;28;20054;-71
2022/04/21 06:54:40;;;;;;;23.58;15.85;;;;;;;6.91;72.54;99512.53;5109050;28;20028;-72
2022/04/21 06:57:05;;;;;;;22.25;16.63;;;;;;;6.87;71.68;99515.09;5109015;28;20062;-71
2022/04/21 06:59:30;;;;;;;23.15;16.40;;;;;;;7.03;71.73;99507.28;5104517;28;20401;-71
2022/04/21 07:01:56;;;;;;;26.90;16.75;;;;;;;7.07;73.09;99510.25;5107352;28;20455;-70
2022/04/21 07:04:22;;;;;;;25.67;17.02;;;;;;;7.13;72.43;99512.63;5105801;28;20107;-72
2022/04/21 07:06:48;;;;;;;25.88;16.33;;;;;;;7.06;71.58;99509.44;5108435;28;20028;-73
2022/04/21 07:09:13;;;;;;;21.80;14.48;;;;;;;7.19;71.58;99504.16;5091385;28;20494;-78
2022/04/21 07:11:39;;;;;;;19.15;12.88;;;;;;;7.11;70.26;99508.50;5093325;28;20028;-74
2022/04/21 07:14:05;;;;;;;21.60;14.30;;;;;;;7.36;72.32;99512.69;5108627;28;20024;-75
2022/04/21 07:16:30;;;;;;;19.10;13.43;;;;;;;7.53;71.61;99503.66;5098199;28;20134;-73
2022/04/21 07:18:56;;;;;;;21.27;14.15;;;;;;;7.62;71.09;99511.28;5101919;28;20115;-72
2022/04/21 07:21:21;;;;;;;19.45;13.18;;;;;;;7.79;70.25;99499.47;5107860;28;20153;-71
2022/04/21 07:23:47;;;;;;;27.55;14.88;;;;;;;7.82;69.97;99498.81;5089661;28;20100;-71
2022/04/21 07:26:13;;;;;;;20.38;14.30;;;;;;;7.73;69.81;99501.53;5084981;28;20039;-69
2022/04/21 07:28:41;;;;;;;20.40;11.27;;;;;;;7.54;68.66;99505.34;5088515;28;20035;-85
2022/04/21 07:31:06;;;;;;;18.67;12.25;;;;;;;7.63;68.20;99502.63;5105758;28;20076;-71
2022/04/21 07:33:32;;;;;;;18.80;13.40;;;;;;;7.65;69.57;99505.91;5106579;28;20024;-69
2022/04/21 07:35:57;;;;;;;22.05;16.20;;;;;;;7.68;70.64;99510.84;5090016;28;20031;-74
2022/04/21 07:38:23;;;;;;;21.33;13.50;;;;;;;7.78;69.63;99506.97;5090335;28;20035;-72
2022/04/21 07:40:50;;;;;;;22.05;15.80;;;;;;;7.96;72.84;99502.38;5108526;28;20026;-72
2022/04/21 07:43:16;;;;;;;20.20;13.70;;;;;;;8.03;69.15;99512.25;5106035;28;20080;-72
2022/04/21 07:45:45;;;;;;;20.58;14.90;;;;;;;8.03;70.31;99504.72;5108614;28;20031;-73
2022/04/21 07:48:10;;;;;;;15.63;11.80;;;;;;;7.98;66.96;99511.25;5078184;28;20028;-73
2022/04/21 07:50:36;;;;;;;27.05;13.27;;;;;;;8.19;67.43;99502.34;5110440;28;20030;-77
2022/04/21 07:53:13;;;;;;;51.05;15.77;;;;;;;8.51;66.75;99502.41;5111521;28;20508;-71
2022/04/21 07:55:40;;;;;;;31.52;15.98;;;;;;;8.52;67.01;99510.44;5110801;28;20023;-73
2022/04/21 07:58:06;;;;;;;17.67;11.93;;;;;;;8.47;65.43;99502.19;5114827;28;20039;-73
2022/04/21 08:00:38;;;;;;;19.00;13.13;;;;;;;8.43;65.95;99507.59;5114474;28;20053;-72
2022/04/21 08:03:09;;;;;;;18.23;13.35;;;;;;;8.67;67.16;99502.78;5097110;28;20032;-73
2022/04/21 08:05:35;;;;;;;17.13;11.68;;;;;;;9.04;65.93;99505.41;5096335;28;20072;-75
2022/04/21 08:08:03;;;;;;;12.00;9.23;;;;;;;9.25;61.75;99508.41;5077260;28;20028;-74
2022/04/21 08:10:29;;;;;;;18.80;11.07;;;;;;;9.14;62.72;99505.09;5114890;28;20049;-77
2022/04/21 08:13:00;;;;;;;14.95;10.90;;;;;;;9.54;61.94;99493.03;5101756;28;20024;-76
2022/04/21 08:15:36;;;;;;;15.40;11.18;;;;;;;9.67;63.23;99497.63;5096816;28;20035;-75
2022/04/21 08:18:03;;;;;;;15.35;10.68;;;;;;;9.48;61.60;99511.91;5087177;28;20030;-75
2022/04/21 08:20:32;;;;;;;15.93;11.35;;;;;;;9.47;63.02;99512.22;5109120;28;20551;-76
2022/04/21 08:22:58;;;;;;;14.80;10.30;;;;;;;9.17;62.12;99498.03;5093510;28;20838;-75
2022/04/21 08:33:36;;;;;;;11.30;8.30;;;;;;;9.77;59.62;99501.22;5094695;28;20074;-77
2022/04/21 08:36:05;;;;;;;13.55;10.13;;;;;;;10.38;61.75;99491.94;5075886;28;20056;-73
2022/04/21 08:38:31;;;;;;;16.33;11.23;;;;;;;10.34;62.82;99491.78;5095435;28;20030;-73
2022/04/21 08:41:00;;;;;;;16.23;10.90;;;;;;;10.62;61.97;99490.59;5114570;28;20027;-76
2022/04/21 08:43:27;;;;;;;11.90;9.30;;;;;;;10.41;60.74;99491.31;5098921;28;20424;-73
2022/04/21 08:45:54;;;;;;;14.57;9.55;;;;;;;10.52;59.79;99470.22;5075909;28;20028;-71
2022/04/21 08:48:23;;;;;;;17.15;8.65;;;;;;;10.53;59.12;99490.59;5075705;28;20096;-72
2022/04/21 08:50:49;;;;;;;11.85;9.05;;;;;;;10.69;58.05;99462.91;5091725;28;20053;-74
2022/04/21 08:53:17;;;;;;;18.38;10.00;;;;;;;10.33;58.10;99472.53;5107510;28;20604;-78
2022/04/21 08:55:44;;;;;;;12.55;9.50;;;;;;;10.45;58.74;99458.72;5095663;28;20462;-76
2022/04/21 08:58:11;;;;;;;10.60;8.07;;;;;;;10.47;57.44;99462.00;5095320;28;20044;-75
2022/04/21 09:00:37;;;;;;;12.63;8.18;;;;;;;10.75;57.68;99455.13;5114063;28;20027;-76
2022/04/21 09:03:06;;;;;;;11.60;7.85;;;;;;;10.98;57.83;99483.66;5114237;28;20035;-74
2022/04/21 09:05:32;;;;;;;8.65;7.63;;;;;;;11.15;53.11;99468.72;5113663;28;20023;-75
2022/04/21 09:07:58;;;;;;;8.50;7.03;;;;;;;11.08;55.03;99474.88;5093288;28;20078;-69
2022/04/21 09:10:26;;;;;;;20.88;8.70;;;;;;;11.34;55.92;99476.69;5075339;28;20054;-69
2022/04/21 09:12:56;;;;;;;9.07;6.72;;;;;;;11.19;54.50;99474.47;5108045;28;20034;-74
2022/04/21 09:15:25;;;;;;;8.20;6.82;;;;;;;11.39;53.60;99472.84;5094915;28;20538;-69
2022/04/21 09:17:56;;;;;;;6.85;5.60;;;;;;;11.37;49.75;99462.00;5112001;28;20028;-68
2022/04/21 09:20:35;;;;;;;9.07;6.35;;;;;;;11.58;52.55;99463.97;5110521;28;20034;-67
2022/04/21 09:23:07;;;;;;;7.97;5.68;;;;;;;11.62;50.67;99455.72;5111540;28;20037;-68
2022/04/21 09:25:49;;;;;;;8.23;6.68;;;;;;;12.06;51.38;99469.34;5092702;28;20473;-69
2022/04/21 09:28:23;;;;;;;9.20;6.05;;;;;;;12.28;51.44;99461.72;5108216;28;20059;-65
2022/04/21 09:30:54;;;;;;;11.95;6.78;;;;;;;12.41;48.91;99457.75;5111436;28;20028;-67
2022/04/21 09:33:27;;;;;;;7.65;6.45;;;;;;;12.27;50.56;99457.25;5111134;28;20493;-66
2022/04/21 09:35:55;;;;;;;7.30;6.25;;;;;;;12.00;51.57;99463.09;5112684;28;20479;-72
2022/04/21 09:38:21;;;;;;;7.88;6.30;;;;;;;12.40;50.09;99453.31;5092042;28;20032;-73
2022/04/21 09:40:47;;;;;;;10.48;6.03;;;;;;;12.14;49.52;99448.81;5112069;28;20068;-71
2022/04/21 09:43:13;;;;;;;34.58;8.68;;;;;;;12.54;51.83;99443.75;5110855;28;20496;-70
2022/04/21 09:48:29;;;;;;;7.38;5.93;;;;;;;12.75;52.19;99444.47;5101292;28;20489;-67
2022/04/21 09:51:07;;;;;;;7.47;6.10;;;;;;;12.82;52.63;99440.28;5111828;28;20034;-71
2022/04/21 09:53:56;;;;;;;7.38;6.22;;;;;;;13.08;52.63;99441.91;5094337;28;20486;-72
2022/04/21 09:56:44;;;;;;;8.35;6.55;;;;;;;13.11;51.22;99430.78;5092113;28;20027;-70
2022/04/21 09:59:11;;;;;;;8.73;7.10;;;;;;;13.23;52.95;99435.53;5085547;28;20046;-74
2022/04/21 10:01:41;;;;;;;8.40;6.50;;;;;;;13.54;51.12;99436.91;5092232;28;20107;-71
2022/04/21 10:04:13;;;;;;;12.43;7.72;;;;;;;13.94;50.43;99431.59;5089816;28;20035;-72
2022/04/21 10:06:40;;;;;;;26.27;7.13;;;;;;;14.07;49.85;99421.91;5090855;28;20089;-73
2022/04/21 10:09:07;;;;;;;13.50;8.05;;;;;;;14.15;49.88;99426.56;5092455;28;20028;-77
2022/04/21 10:11:32;;;;;;;15.68;9.75;;;;;;;14.04;50.08;99419.84;5090673;28;20085;-73
2022/04/21 10:13:58;;;;;;;21.33;9.35;;;;;;;14.01;50.07;99426.97;5086966;28;20482;-74
2022/04/21 10:16:28;;;;;;;14.27;8.95;;;;;;;14.13;47.96;99422.47;5072182;28;20024;-72
2022/04/21 10:18:57;;;;;;;8.80;7.90;;;;;;;14.05;47.83;99418.66;5073518;28;20522;-73
2022/04/21 10:22:03;;;;;;;9.43;7.63;;;;;;;14.07;47.54;99421.91;5083287;28;20027;-75
2022/04/21 10:24:32;;;;;;;10.07;7.35;;;;;;;14.35;48.91;99412.59;5080639;28;20095;-72
2022/04/21 10:26:58;;;;;;;10.68;7.20;;;;;;;14.02;49.12;99410.94;5089273;28;20117;-74
2022/04/21 10:29:27;;;;;;;10.95;7.47;;;;;;;14.26;49.48;99403.53;5078983;28;20406;-73
2022/04/21 10:31:56;;;;;;;11.25;7.13;;;;;;;14.43;48.61;99408.00;5086963;28;20031;-69
2022/04/21 10:34:34;;;;;;;14.45;8.23;;;;;;;14.36;51.61;99402.19;5088569;28;20019;-81
2022/04/21 10:37:17;;;;;;;9.65;7.22;;;;;;;14.35;52.67;99406.97;5089506;28;20100;-80
2022/04/21 10:40:03;;;;;;;11.80;8.10;;;;;;;14.42;53.03;99412.78;5083328;28;20020;-75
2022/04/21 10:42:29;;;;;;;11.38;10.00;;;;;;;14.60;51.53;99404.81;5087386;28;20705;-74
2022/04/21 10:44:55;;;;;;;11.82;9.25;;;;;;;14.50;51.66;99401.72;5090836;28;20020;-77
2022/04/21 10:47:33;;;;;;;10.50;9.35;;;;;;;14.74;50.38;99406.38;5092267;28;20561;-74
2022/04/21 10:50:00;;;;;;;10.93;8.07;;;;;;;14.90;50.13;99406.34;5083644;28;20024;-71
2022/04/21 10:57:50;;;;;;;17.25;10.52;;;;;;;14.95;52.83;99410.88;5096612;28;20525;-76
2022/04/21 11:00:29;;;;;;;12.13;9.38;;;;;;;15.08;52.96;99403.13;5107799;28;20127;-71
2022/04/21 11:03:27;;;;;;;14.15;10.15;;;;;;;15.30;49.53;99393.97;5104416;28;20051;-72
2022/04/21 11:06:05;;;;;;;17.65;10.68;;;;;;;15.69;53.49;99383.91;5078843;28;20055;-73
2022/04/21 11:08:31;;;;;;;17.45;11.23;;;;;;;15.81;50.69;99377.28;5104766;28;20122;-73
2022/04/21 11:10:57;;;;;;;12.60;10.25;;;;;;;15.83;53.94;99384.19;5097114;28;20095;-73
2022/04/21 11:13:40;;;;;;;12.18;9.95;;;;;;;15.70;51.70;99391.16;5098839;28;20461;-71
2022/04/21 11:16:06;;;;;;;13.02;9.90;;;;;;;15.65;51.00;99380.19;5098767;28;20032;-71
2022/04/21 11:18:31;;;;;;;13.75;9.85;;;;;;;14.99;53.04;99383.59;5107755;28;20114;-75
2022/04/21 11:21:28;;;;;;;12.50;9.82;;;;;;;15.02;51.48;99385.69;5110464;28;20020;-72
2022/04/21 11:23:53;;;;;;;11.48;9.60;;;;;;;14.86;52.49;99375.28;5084193;28;20024;-71
2022/04/21 11:26:26;;;;;;;11.35;9.23;;;;;;;14.80;50.76;99376.75;5106696;28;20106;-72
2022/04/21 11:28:52;;;;;;;19.38;9.60;;;;;;;15.01;51.59;99376.44;5103127;28;20028;-70
2022/04/21 11:31:21;;;;;;;10.68;8.65;;;;;;;14.86;51.36;99366.84;5092400;28;20028;-71
2022/04/21 11:33:47;;;;;;;9.05;8.15;;;;;;;14.72;51.30;99363.69;5096605;28;20018;-74
2022/04/21 11:36:14;;;;;;;9.15;8.15;;;;;;;15.10;51.07;99367.78;5115047;28;20023;-74
2022/04/21 11:38:42;;;;;;;9.40;7.57;;;;;;;14.98;50.69;99359.44;5114555;28;20027;-68
2022/04/21 11:41:09;;;;;;;38.88;10.43;;;;;;;15.22;49.60;99364.03;5115037;28;20516;-68
2022/04/21 11:43:36;;;;;;;10.85;8.07;;;;;;;15.33;51.62;99347.31;5096323;28;20027;-69
2022/04/21 11:46:07;;;;;;;10.40;8.35;;;;;;;15.12;51.81;99353.31;5094073;28;20031;-70
2022/04/21 11:48:36;;;;;;;9.52;8.48;;;;;;;15.42;50.62;99345.13;5111708;28;20085;-71
2022/04/21 11:51:02;;;;;;;11.45;8.27;;;;;;;15.44;50.64;99342.72;5093895;28;20019;-68
2022/04/21 11:53:30;;;;;;;10.45;8.30;;;;;;;15.23;50.88;99345.94;5112740;28;20077;-67
2022/04/21 11:55:56;;;;;;;12.80;8.98;;;;;;;14.95;50.64;99337.66;5096945;28;20381;-74
2022/04/21 11:58:37;;;;;;;10.43;8.52;;;;;;;14.91;51.30;99333.97;5114722;28;20040;-68
2022/04/21 12:06:45;;;;;;;11.90;9.15;;;;;;;15.53;50.44;99328.41;5108840;28;20047;-72
2022/04/21 12:09:15;;;;;;;12.20;9.55;;;;;;;15.74;50.51;99324.38;5109783;28;20110;-72
2022/04/21 12:11:41;;;;;;;;;;;;;;;15.80;49.68;99322.06;5102113;28;20035;-73
2022/04/21 12:14:07;;;;;;;13.85;10.82;;;;;;;15.45;49.04;99312.56;5112363;28;19912;-73
2022/04/21 12:16:41;;;;;;;19.88;11.80;;;;;;;15.39;48.46;99312.03;5096087;28;20024;-72
2022/04/21 12:19:14;;;;;;;17.73;12.23;;;;;;;15.74;49.70;99299.00;5087213;28;20147;-72